Markleeville, California
Current Conditions -  °F | °C
As of 1:53 AM on Monday 20 Oct 2014 (Local Time) from KTVL Reporting Station
Clear Clear  
Wind Chill: 45°   Ceiling: Unl
Heat Index: 45°   Visibility: 10mi
Dew Point: 29°   Wind: 0mph
Humidity: 53%   Direction: NA
Pressure: 30.04"   Gusts: NA
Location:  38.69°N, 119.78°W
Report Text: KTVL 200853Z AUTO 00000KT 10SM CLR 07/M02 A3004 RMK AO2 SLP121 T00721017 55008
Loading
Personal Weather Stations






























Interactive Weather Map
Tropical Storm Tracking
New forecast layout! Learn more

10-Day Weather Forecast

Advertisements
Track Severe Weather on mobile